Time;durP1;ratioP1;P1;durP2;ratioP2;P2;SDS_P1;SDS_P2;PMS_P1;PMS_P2;Temp;Humidity;BMP_temperature;BMP_pressure;BME280_temperature;BME280_humidity;BME280_pressure;Samples;Min_cycle;Max_cycle;Signal;HPM_P1;HPM_P2
2023/10/08 00:02:05;;;;;;;0.22;0.00;;;;;;;7.46;66.31;96507.53;4976860;28;20034;-61
2023/10/08 00:04:37;;;;;;;1.23;0.10;;;;;;;7.51;66.02;96499.00;4973166;28;20030;-61
2023/10/08 00:07:07;;;;;;;0.28;0.15;;;;;;;7.46;66.44;96491.56;4982760;28;20023;-62
2023/10/08 00:09:37;;;;;;;3.33;0.13;;;;;;;7.44;65.89;96499.75;4990899;28;20041;-62
2023/10/08 00:12:08;;;;;;;0.45;0.00;;;;;;;7.49;66.08;96507.19;4992928;28;20034;-61
2023/10/08 00:14:43;;;;;;;2.22;0.10;;;;;;;7.46;65.70;96494.22;4984567;28;20042;-62
2023/10/08 00:17:11;;;;;;;1.90;0.10;;;;;;;7.43;65.46;96489.28;4973902;28;20034;-61
2023/10/08 00:19:38;;;;;;;0.47;0.20;;;;;;;7.42;65.54;96499.09;4975884;28;20041;-61
2023/10/08 00:22:09;;;;;;;0.00;0.00;;;;;;;7.49;64.99;96487.72;4989615;28;20034;-61
2023/10/08 00:24:35;;;;;;;1.65;0.10;;;;;;;7.46;64.96;96492.41;4994418;28;20026;-61
2023/10/08 00:27:02;;;;;;;0.10;0.10;;;;;;;7.47;64.30;96496.69;4983775;28;20064;-62
2023/10/08 00:29:31;;;;;;;1.52;0.15;;;;;;;7.40;64.33;96492.31;4991526;28;20376;-62
2023/10/08 00:31:58;;;;;;;0.03;0.00;;;;;;;7.42;64.40;96493.78;4992187;28;20113;-64
2023/10/08 00:34:24;;;;;;;0.65;0.00;;;;;;;7.40;64.15;96479.00;4980982;28;20122;-62
2023/10/08 00:36:50;;;;;;;0.17;0.10;;;;;;;7.39;64.24;96490.66;4977062;28;20369;-62
2023/10/08 00:39:23;;;;;;;3.22;0.10;;;;;;;7.37;63.83;96485.53;4990416;28;20030;-61
2023/10/08 00:41:51;;;;;;;1.10;0.00;;;;;;;7.40;63.52;96493.16;4976177;28;20118;-61
2023/10/08 00:44:29;;;;;;;0.82;0.05;;;;;;;7.37;63.48;96498.00;4977208;28;20038;-61
2023/10/08 00:46:56;;;;;;;0.55;0.10;;;;;;;7.26;63.58;96501.97;4993433;28;20034;-61
2023/10/08 00:49:35;;;;;;;0.22;0.03;;;;;;;7.16;63.63;96487.13;4976754;28;20113;-62
2023/10/08 00:54:33;;;;;;;0.50;0.08;;;;;;;6.66;63.19;96435.50;4977028;28;20114;-63
2023/10/08 00:57:04;;;;;;;0.47;0.10;;;;;;;6.90;62.75;96484.91;4975997;28;20054;-61
2023/10/08 00:59:36;;;;;;;3.13;0.22;;;;;;;6.86;63.21;96500.41;4988977;28;20412;-63
2023/10/08 01:02:06;;;;;;;0.65;0.10;;;;;;;6.83;63.16;96494.63;4990451;28;20347;-60
2023/10/08 01:04:34;;;;;;;0.55;0.20;;;;;;;6.72;63.36;96495.91;4987800;28;20644;-61
2023/10/08 01:07:15;;;;;;;0.30;0.10;;;;;;;6.52;63.50;96461.88;4992849;28;20040;-62
2023/10/08 01:09:50;;;;;;;0.43;0.00;;;;;;;6.56;63.09;96465.81;4983457;28;20041;-62
2023/10/08 01:14:53;;;;;;;0.47;0.10;;;;;;;6.67;63.04;96472.53;4984825;28;20047;-60
2023/10/08 01:17:26;;;;;;;1.98;0.10;;;;;;;6.84;62.90;96498.94;4994702;28;20444;-61
2023/10/08 01:22:44;;;;;;;0.28;0.10;;;;;;;6.72;62.25;96467.47;4981150;28;20137;-61
2023/10/08 01:25:10;;;;;;;1.35;0.20;;;;;;;6.75;62.71;96471.63;4991234;28;20045;-60
2023/10/08 01:27:37;;;;;;;1.58;0.00;;;;;;;6.86;62.64;96475.66;4976420;28;20042;-62
2023/10/08 01:30:17;;;;;;;0.17;0.10;;;;;;;6.82;62.13;96480.50;4987485;28;20512;-62
2023/10/08 01:32:44;;;;;;;1.77;0.10;;;;;;;6.93;62.09;96499.69;4975161;28;20034;-61
2023/10/08 01:35:31;;;;;;;0.00;0.00;;;;;;;6.61;61.97;96457.31;4985216;28;20430;-61
2023/10/08 01:37:59;;;;;;;0.20;0.10;;;;;;;6.72;61.56;96488.75;4995031;28;20069;-61
2023/10/08 01:40:25;;;;;;;2.47;0.10;;;;;;;6.69;62.13;96491.78;4995117;28;20030;-60
2023/10/08 01:42:51;;;;;;;1.00;0.30;;;;;;;6.65;62.24;96495.00;4993374;28;20041;-62
2023/10/08 01:45:20;;;;;;;0.13;0.00;;;;;;;6.62;62.16;96488.19;4993827;28;20061;-62
2023/10/08 01:47:50;;;;;;;1.65;0.03;;;;;;;6.65;62.14;96503.78;4981403;28;20085;-62
2023/10/08 01:50:21;;;;;;;0.15;0.00;;;;;;;6.68;62.43;96492.78;4975087;28;20069;-62
2023/10/08 01:52:51;;;;;;;0.55;0.08;;;;;;;6.73;61.62;96510.84;4974912;28;20035;-61
2023/10/08 01:55:18;;;;;;;3.15;0.10;;;;;;;6.67;62.01;96491.13;4974802;28;20023;-61
2023/10/08 01:57:46;;;;;;;1.90;0.10;;;;;;;6.76;61.93;96510.47;4975105;28;20023;-63
2023/10/08 02:00:14;;;;;;;0.20;0.10;;;;;;;6.79;62.56;96498.66;4975062;28;20023;-61
2023/10/08 02:02:40;;;;;;;0.20;0.10;;;;;;;6.83;62.74;96506.09;4974572;28;20113;-62
2023/10/08 02:05:06;;;;;;;0.50;0.10;;;;;;;6.72;63.58;96502.03;4988478;28;20034;-62
2023/10/08 02:07:33;;;;;;;0.85;0.10;;;;;;;6.72;64.08;96512.66;4981770;28;20043;-64
2023/10/08 02:09:59;;;;;;;0.50;0.10;;;;;;;6.42;64.96;96456.81;4994323;28;20659;-62
2023/10/08 02:12:25;;;;;;;0.10;0.08;;;;;;;6.57;65.23;96502.03;4984552;28;20045;-62
2023/10/08 02:14:51;;;;;;;0.22;0.20;;;;;;;6.64;65.42;96496.00;4993661;28;20085;-61
2023/10/08 02:17:17;;;;;;;2.35;0.20;;;;;;;6.57;64.82;96491.38;4990758;28;20066;-61
2023/10/08 02:19:43;;;;;;;5.28;0.22;;;;;;;6.56;63.97;96507.53;4991722;28;20458;-63
2023/10/08 02:22:11;;;;;;;0.68;0.20;;;;;;;6.55;64.36;96508.53;4991759;28;20040;-61
2023/10/08 02:24:38;;;;;;;0.52;0.20;;;;;;;6.46;64.05;96484.69;4991660;28;20492;-61
2023/10/08 02:27:03;;;;;;;1.20;0.20;;;;;;;6.45;63.50;96509.59;4990299;28;20034;-63
2023/10/08 02:29:30;;;;;;;0.30;0.10;;;;;;;6.18;63.56;96452.56;4975085;28;20046;-62
2023/10/08 02:31:56;;;;;;;0.73;0.22;;;;;;;6.40;63.54;96506.66;4974704;28;20050;-61
2023/10/08 02:34:22;;;;;;;3.22;0.10;;;;;;;6.43;63.36;96518.78;4973781;28;20214;-63
2023/10/08 02:36:48;;;;;;;2.05;0.45;;;;;;;6.42;64.13;96520.59;4973519;28;20062;-63
2023/10/08 02:39:14;;;;;;;0.52;0.10;;;;;;;6.37;63.93;96500.88;4989715;28;20038;-62
2023/10/08 02:41:45;;;;;;;0.20;0.10;;;;;;;6.41;64.47;96512.81;4992914;28;20165;-61
2023/10/08 02:44:16;;;;;;;1.77;0.22;;;;;;;6.41;64.24;96513.63;4975137;28;20035;-61
2023/10/08 02:46:49;;;;;;;0.50;0.10;;;;;;;6.43;64.17;96516.94;4979191;28;20372;-61
2023/10/08 02:49:20;;;;;;;1.08;0.22;;;;;;;6.16;64.25;96489.91;4977995;28;20030;-61
2023/10/08 02:51:50;;;;;;;0.32;0.20;;;;;;;6.09;64.87;96510.25;4991994;28;20113;-61
2023/10/08 02:54:31;;;;;;;0.98;0.30;;;;;;;6.08;64.42;96513.91;4992987;28;20042;-60
2023/10/08 02:57:02;;;;;;;0.75;0.20;;;;;;;6.05;64.57;96521.38;4992693;28;20070;-61
2023/10/08 02:59:41;;;;;;;0.60;0.20;;;;;;;5.97;64.57;96500.97;4975777;28;20062;-62
2023/10/08 03:02:18;;;;;;;0.10;0.10;;;;;;;6.02;65.00;96507.47;4972516;28;20512;-63
2023/10/08 03:04:47;;;;;;;0.47;0.22;;;;;;;5.77;64.74;96466.94;4974109;28;20089;-61
2023/10/08 03:07:26;;;;;;;1.85;0.22;;;;;;;5.97;64.96;96498.31;4991987;28;20039;-61
2023/10/08 03:10:05;;;;;;;0.20;0.20;;;;;;;5.95;65.12;96505.66;4974753;28;20049;-62
2023/10/08 03:12:32;;;;;;;4.25;0.22;;;;;;;6.01;64.83;96508.47;4978461;28;20048;-62
2023/10/08 03:15:12;;;;;;;3.17;0.22;;;;;;;5.78;65.15;96467.78;4974849;28;20051;-61
2023/10/08 03:17:48;;;;;;;0.28;0.20;;;;;;;6.02;65.35;96518.09;4977383;28;20057;-62
2023/10/08 03:23:23;;;;;;;2.83;0.25;;;;;;;6.20;64.53;96505.50;4969989;28;19977;-63
2023/10/08 03:26:00;;;;;;;0.30;0.20;;;;;;;6.18;65.00;96511.00;4988235;28;20053;-61
2023/10/08 03:28:27;;;;;;;1.70;0.30;;;;;;;5.99;65.25;96491.84;4981957;28;20035;-64
2023/10/08 03:31:03;;;;;;;0.70;0.20;;;;;;;5.97;65.45;96506.28;4991704;28;20066;-61
2023/10/08 03:33:35;;;;;;;2.05;0.40;;;;;;;5.96;65.81;96502.00;4986974;28;20466;-62
2023/10/08 03:36:14;;;;;;;0.50;0.30;;;;;;;5.98;65.84;96505.28;4972495;28;20439;-61
2023/10/08 03:38:52;;;;;;;0.75;0.20;;;;;;;5.98;65.69;96492.00;4973031;28;20041;-62
2023/10/08 03:41:27;;;;;;;0.85;0.30;;;;;;;6.01;65.39;96494.34;4973734;28;20046;-61
2023/10/08 03:43:55;;;;;;;0.65;0.30;;;;;;;5.96;65.81;96499.34;4973443;28;20066;-61
2023/10/08 03:46:23;;;;;;;1.02;0.25;;;;;;;5.98;65.35;96497.31;4985126;28;20516;-61
2023/10/08 03:48:51;;;;;;;3.20;0.20;;;;;;;6.01;65.14;96500.50;4992490;28;20031;-62
2023/10/08 03:51:20;;;;;;;1.38;0.38;;;;;;;6.05;65.24;96503.63;4993015;28;20042;-61
2023/10/08 03:53:59;;;;;;;2.67;0.30;;;;;;;5.99;64.48;96483.03;4993151;28;20113;-60
2023/10/08 03:56:29;;;;;;;0.88;0.20;;;;;;;6.07;64.88;96496.31;4992698;28;20045;-60
2023/10/08 03:58:55;;;;;;;2.72;0.20;;;;;;;6.14;64.71;96496.41;4995235;28;20331;-61
2023/10/08 04:01:22;;;;;;;2.08;0.52;;;;;;;6.12;64.72;96504.56;4995704;28;20121;-58
2023/10/08 04:06:16;;;;;;;0.85;0.20;;;;;;;6.12;64.04;96509.88;4995718;28;20111;-65
2023/10/08 04:09:00;;;;;;;1.38;0.30;;;;;;;6.10;64.51;96500.41;4984510;28;20043;-62
2023/10/08 04:11:35;;;;;;;0.50;0.20;;;;;;;6.01;64.27;96481.91;4977891;28;20026;-61
2023/10/08 04:14:02;;;;;;;2.33;0.30;;;;;;;6.19;64.11;96512.66;4994413;28;20049;-63
2023/10/08 04:16:37;;;;;;;2.10;0.35;;;;;;;6.19;64.68;96507.34;4989174;28;20081;-61
2023/10/08 04:19:03;;;;;;;1.60;0.40;;;;;;;6.13;64.21;96500.06;4994867;28;20035;-61
2023/10/08 04:21:29;;;;;;;5.93;0.52;;;;;;;6.12;64.03;96504.56;4995620;28;20129;-63
2023/10/08 04:23:57;;;;;;;1.20;0.38;;;;;;;6.20;64.55;96497.53;4994647;28;20110;-61
2023/10/08 04:26:23;;;;;;;0.95;0.30;;;;;;;6.18;63.83;96495.06;4983494;28;20027;-64
2023/10/08 04:29:02;;;;;;;1.27;0.43;;;;;;;6.18;64.14;96493.22;4978161;28;20038;-62
2023/10/08 04:31:38;;;;;;;0.85;0.20;;;;;;;6.34;63.53;96499.41;4976167;28;20408;-62
2023/10/08 04:34:16;;;;;;;0.88;0.25;;;;;;;6.35;63.42;96495.75;4976165;28;20030;-62
2023/10/08 04:36:45;;;;;;;1.25;0.32;;;;;;;6.30;63.42;96512.22;4974587;28;20489;-61
2023/10/08 04:39:15;;;;;;;4.05;0.40;;;;;;;6.21;63.97;96504.50;4985320;28;20039;-64
2023/10/08 04:41:45;;;;;;;1.60;0.30;;;;;;;6.24;63.81;96504.13;4995398;28;20034;-63
2023/10/08 04:44:15;;;;;;;0.70;0.30;;;;;;;6.17;63.71;96494.22;4994074;28;20073;-64
2023/10/08 04:46:49;;;;;;;1.27;0.28;;;;;;;6.23;63.57;96489.19;4993658;28;20030;-64
2023/10/08 04:49:28;;;;;;;0.82;0.20;;;;;;;6.35;63.22;96514.34;4979762;28;20038;-62
2023/10/08 04:52:05;;;;;;;3.53;0.30;;;;;;;6.44;63.22;96502.63;4992181;28;20031;-62
2023/10/08 04:54:30;;;;;;;0.55;0.28;;;;;;;6.27;62.60;96475.38;4995866;28;20033;-62
2023/10/08 04:57:00;;;;;;;1.25;0.25;;;;;;;6.42;63.13;96498.53;4993449;28;20038;-60
2023/10/08 04:59:32;;;;;;;4.60;0.20;;;;;;;6.37;62.51;96496.41;4983903;28;20030;-62
2023/10/08 05:02:20;;;;;;;0.70;0.20;;;;;;;6.47;62.58;96502.28;4980369;28;20338;-61
2023/10/08 05:26:08;;;;;;;0.43;0.20;;;;;;;6.53;63.06;96519.34;4994014;28;20034;-62
2023/10/08 05:28:46;;;;;;;1.85;0.50;;;;;;;6.55;63.06;96527.94;4991123;28;20117;-60
2023/10/08 05:36:35;;;;;;;3.63;0.30;;;;;;;6.58;63.10;96521.47;4983940;28;20076;-61
2023/10/08 05:39:19;;;;;;;2.65;0.30;;;;;;;6.63;62.68;96531.53;4973970;28;20485;-64
2023/10/08 05:45:13;;;;;;;4.05;0.38;;;;;;;6.69;61.73;96525.53;4990041;28;20042;-64
2023/10/08 05:55:27;;;;;;;7.13;0.57;;;;;;;6.31;60.79;96481.19;4983229;28;20026;-62
2023/10/08 05:58:24;;;;;;;1.98;0.30;;;;;;;6.57;60.94;96528.59;4978825;28;20031;-62
2023/10/08 06:03:35;;;;;;;1.27;0.40;;;;;;;6.62;60.73;96546.66;4990988;28;20045;-66
2023/10/08 06:06:22;;;;;;;0.45;0.30;;;;;;;6.68;59.99;96539.81;4992251;28;20042;-65
2023/10/08 06:08:52;;;;;;;0.70;0.30;;;;;;;6.67;60.13;96538.16;4992559;28;20091;-63
2023/10/08 06:11:37;;;;;;;1.88;0.35;;;;;;;6.71;59.44;96550.09;4993658;28;20074;-62
2023/10/08 06:14:13;;;;;;;0.88;0.20;;;;;;;6.66;59.93;96555.13;4992997;28;20030;-63
2023/10/08 06:16:43;;;;;;;0.70;0.40;;;;;;;6.32;59.85;96518.19;4991785;28;20053;-66
2023/10/08 06:19:13;;;;;;;4.60;0.50;;;;;;;6.32;60.12;96515.53;4988583;28;20125;-62
2023/10/08 06:21:42;;;;;;;1.73;0.50;;;;;;;6.58;59.83;96532.91;4986849;28;20049;-64
2023/10/08 06:24:09;;;;;;;0.52;0.20;;;;;;;6.64;59.98;96552.63;4990989;28;20473;-64
2023/10/08 06:26:48;;;;;;;1.23;0.30;;;;;;;6.71;60.38;96544.78;4987024;28;20421;-66
2023/10/08 06:29:35;;;;;;;3.63;0.28;;;;;;;6.64;59.20;96499.47;4962312;28;20346;-66
2023/10/08 06:32:03;;;;;;;2.75;0.43;;;;;;;7.24;58.87;96549.22;4982165;28;20417;-66
2023/10/08 06:34:29;;;;;;;0.85;0.30;;;;;;;7.39;57.99;96550.06;4975142;28;20538;-64
2023/10/08 06:36:57;;;;;;;1.80;0.40;;;;;;;7.42;57.50;96556.81;4975076;28;20346;-62
2023/10/08 06:39:33;;;;;;;0.38;0.20;;;;;;;7.42;57.35;96557.66;4985004;28;20100;-64
2023/10/08 06:42:00;;;;;;;2.13;0.30;;;;;;;7.31;57.31;96553.63;4978028;28;20208;-65
2023/10/08 06:44:27;;;;;;;1.90;0.30;;;;;;;7.26;57.87;96564.00;4975337;28;20038;-64
2023/10/08 06:46:54;;;;;;;1.02;0.40;;;;;;;7.35;57.26;96561.25;4974768;28;20117;-65
2023/10/08 06:49:23;;;;;;;3.25;0.30;;;;;;;7.37;57.24;96553.91;4974127;28;20515;-64
2023/10/08 06:51:50;;;;;;;0.90;0.30;;;;;;;7.33;57.16;96522.31;4976454;28;20065;-64
2023/10/08 06:54:17;;;;;;;2.47;0.50;;;;;;;7.58;56.75;96545.97;4982016;28;20081;-64
2023/10/08 06:56:51;;;;;;;1.80;0.40;;;;;;;7.58;56.51;96558.44;4982339;28;20039;-64
2023/10/08 06:59:18;;;;;;;4.10;0.63;;;;;;;7.54;56.14;96555.34;4983322;28;20410;-63
2023/10/08 07:01:47;;;;;;;1.75;0.20;;;;;;;7.49;56.20;96552.44;4982614;28;20065;-65
2023/10/08 07:04:13;;;;;;;1.27;0.40;;;;;;;7.52;56.36;96562.69;4984320;28;20080;-64
2023/10/08 07:06:43;;;;;;;0.93;0.40;;;;;;;7.44;56.32;96555.63;4983003;28;20054;-69
2023/10/08 07:09:22;;;;;;;3.15;0.40;;;;;;;7.47;56.78;96555.25;4981801;28;20357;-64
2023/10/08 07:11:54;;;;;;;6.13;0.52;;;;;;;7.59;56.46;96563.59;4983025;28;20041;-65
2023/10/08 07:14:26;;;;;;;1.42;0.47;;;;;;;7.49;55.58;96523.16;4982400;28;20342;-64
2023/10/08 07:17:00;;;;;;;1.33;0.45;;;;;;;7.89;55.70;96571.53;4982514;28;20086;-66
2023/10/08 07:19:33;;;;;;;2.72;0.50;;;;;;;7.98;55.41;96564.25;4967443;28;20031;-65
2023/10/08 07:22:03;;;;;;;1.02;0.40;;;;;;;7.95;54.81;96580.63;4980841;28;20121;-65
2023/10/08 07:24:30;;;;;;;2.75;0.60;;;;;;;7.98;55.46;96577.56;4982509;28;20066;-65
2023/10/08 07:26:56;;;;;;;2.40;0.50;;;;;;;8.00;54.33;96564.09;4982770;28;20128;-65
2023/10/08 07:29:22;;;;;;;0.73;0.30;;;;;;;7.97;54.58;96578.59;4980996;28;20047;-64
2023/10/08 07:31:52;;;;;;;1.67;0.30;;;;;;;7.90;53.64;96564.38;4985052;28;20022;-63
2023/10/08 07:34:25;;;;;;;1.08;0.40;;;;;;;7.88;54.34;96583.19;4986911;28;20027;-64
2023/10/08 07:36:54;;;;;;;1.73;0.40;;;;;;;7.94;54.22;96583.47;4986838;28;20053;-65
2023/10/08 07:41:56;;;;;;;1.92;0.60;;;;;;;8.11;53.03;96584.09;4986264;28;20050;-64
2023/10/08 07:44:23;;;;;;;2.85;0.40;;;;;;;8.11;52.60;96587.56;4985762;28;20026;-65
2023/10/08 07:46:54;;;;;;;5.20;0.82;;;;;;;8.08;52.89;96579.09;4990414;28;20129;-64
2023/10/08 07:49:22;;;;;;;2.38;0.40;;;;;;;8.03;51.84;96555.72;4986212;28;20114;-65
2023/10/08 07:51:52;;;;;;;5.00;0.47;;;;;;;8.21;51.54;96568.59;4986056;28;20281;-64
2023/10/08 07:54:22;;;;;;;3.25;0.45;;;;;;;8.28;50.88;96566.81;4986847;28;20030;-65
2023/10/08 07:56:48;;;;;;;4.72;0.32;;;;;;;8.28;51.63;96563.34;4986587;28;20306;-64
2023/10/08 07:59:16;;;;;;;1.52;0.50;;;;;;;8.18;51.10;96569.78;4981808;28;20072;-66
2023/10/08 08:01:42;;;;;;;1.58;0.30;;;;;;;8.16;50.96;96571.00;4985442;28;20050;-62
2023/10/08 08:04:21;;;;;;;4.57;0.50;;;;;;;8.09;51.06;96600.25;4994084;28;20128;-65
2023/10/08 08:06:49;;;;;;;0.77;0.40;;;;;;;7.90;51.47;96591.84;4977502;28;20037;-64
2023/10/08 08:09:23;;;;;;;2.13;0.30;;;;;;;7.97;51.91;96596.44;4994887;28;20027;-64
2023/10/08 08:11:49;;;;;;;2.08;0.40;;;;;;;8.17;50.93;96592.13;4994778;28;20252;-64
2023/10/08 08:14:17;;;;;;;0.70;0.40;;;;;;;8.43;50.67;96611.25;4996063;28;20027;-64
2023/10/08 08:16:47;;;;;;;5.95;0.77;;;;;;;8.50;50.38;96609.50;4978864;28;20089;-64
2023/10/08 08:19:15;;;;;;;2.22;0.52;;;;;;;8.62;49.63;96609.84;4993466;28;20038;-63
2023/10/08 08:21:45;;;;;;;1.58;0.50;;;;;;;8.78;49.54;96624.75;4993180;28;20049;-64
2023/10/08 08:24:28;;;;;;;4.70;1.13;;;;;;;8.90;49.29;96606.38;4962264;28;20179;-64
2023/10/08 08:27:11;;;;;;;2.28;0.90;;;;;;;9.20;48.51;96600.88;4975590;28;20026;-65
2023/10/08 08:29:48;;;;;;;1.23;0.55;;;;;;;9.11;47.23;96564.66;4993119;28;20034;-66
2023/10/08 08:32:15;;;;;;;2.72;0.35;;;;;;;9.38;47.51;96616.38;4991639;28;20038;-64
2023/10/08 08:34:44;;;;;;;1.13;0.60;;;;;;;9.40;47.35;96606.34;4996007;28;20046;-65
2023/10/08 08:37:13;;;;;;;1.23;0.40;;;;;;;9.15;47.02;96576.59;4994090;28;20034;-65
2023/10/08 08:39:41;;;;;;;1.60;0.47;;;;;;;9.18;47.71;96619.75;4993982;28;20445;-64
2023/10/08 08:42:07;;;;;;;3.08;0.40;;;;;;;8.92;47.54;96620.34;4994887;28;20053;-64
2023/10/08 08:44:45;;;;;;;2.53;0.77;;;;;;;8.42;49.17;96578.44;4994042;28;20446;-65
2023/10/08 08:47:17;;;;;;;5.82;0.50;;;;;;;8.63;48.53;96616.00;4994031;28;20115;-65
2023/10/08 08:49:47;;;;;;;1.60;0.32;;;;;;;8.75;49.02;96631.31;4979751;28;20038;-63
2023/10/08 08:52:14;;;;;;;1.80;0.25;;;;;;;8.54;48.25;96597.44;4977251;28;20027;-65
2023/10/08 08:54:41;;;;;;;2.10;0.25;;;;;;;7.89;48.23;96520.13;4977299;28;20038;-65
2023/10/08 08:57:16;;;;;;;1.00;0.50;;;;;;;8.60;48.61;96631.38;4976650;28;20142;-63
2023/10/08 08:59:54;;;;;;;0.75;0.20;;;;;;;8.38;48.59;96593.16;4992772;28;20034;-65
2023/10/08 09:02:20;;;;;;;2.80;0.40;;;;;;;8.43;48.43;96649.41;4977332;28;20109;-66
2023/10/08 09:04:48;;;;;;;1.00;0.43;;;;;;;8.47;48.09;96632.03;4993930;28;20485;-65
2023/10/08 09:07:13;;;;;;;0.77;0.30;;;;;;;8.44;48.68;96608.44;4993461;28;20457;-66
2023/10/08 09:09:42;;;;;;;1.42;0.60;;;;;;;8.46;48.47;96622.38;4995387;28;20034;-65
2023/10/08 09:12:10;;;;;;;3.15;0.50;;;;;;;8.58;48.44;96636.06;4982393;28;20058;-66
2023/10/08 09:14:38;;;;;;;2.47;0.47;;;;;;;8.26;48.70;96616.03;4991168;28;20066;-66
2023/10/08 09:17:05;;;;;;;1.58;0.43;;;;;;;8.27;50.29;96644.31;4992590;28;20038;-64
2023/10/08 09:19:36;;;;;;;0.50;0.20;;;;;;;8.15;50.51;96647.44;4983684;28;20050;-64
2023/10/08 09:22:05;;;;;;;3.45;0.75;;;;;;;8.16;50.54;96662.44;4976870;28;20055;-65
2023/10/08 09:24:38;;;;;;;3.60;0.40;;;;;;;8.12;51.05;96645.16;4975685;28;20034;-65
2023/10/08 09:27:08;;;;;;;2.17;0.43;;;;;;;7.94;51.29;96623.41;4989301;28;20035;-65
2023/10/08 09:29:39;;;;;;;1.75;0.40;;;;;;;8.08;51.10;96645.72;4985715;28;20035;-66
2023/10/08 09:32:08;;;;;;;1.00;0.30;;;;;;;7.76;51.28;96592.69;4992316;28;20140;-65
2023/10/08 09:34:34;;;;;;;1.70;0.35;;;;;;;8.02;50.99;96647.31;4990004;28;20023;-65
2023/10/08 09:37:01;;;;;;;0.20;0.10;;;;;;;8.05;50.72;96665.59;4973984;28;20049;-67
2023/10/08 09:39:29;;;;;;;2.25;0.50;;;;;;;7.97;50.74;96650.53;4975429;28;20430;-69
2023/10/08 09:41:58;;;;;;;3.83;0.30;;;;;;;8.09;50.20;96660.72;4985723;28;20472;-65
2023/10/08 09:44:24;;;;;;;1.40;0.40;;;;;;;7.64;51.06;96639.44;4978532;28;20053;-65
2023/10/08 09:47:07;;;;;;;1.17;0.20;;;;;;;7.77;51.17;96655.59;4978939;28;20042;-64
2023/10/08 09:49:41;;;;;;;1.70;0.30;;;;;;;7.74;50.89;96667.44;4975226;28;20046;-66
2023/10/08 09:52:07;;;;;;;1.42;0.35;;;;;;;7.40;51.65;96639.53;4974025;28;20033;-66
2023/10/08 09:54:42;;;;;;;0.50;0.22;;;;;;;7.39;52.01;96650.34;4974372;28;20041;-65
2023/10/08 09:57:10;;;;;;;1.17;0.30;;;;;;;7.62;51.51;96666.25;4974705;28;20121;-65
2023/10/08 09:59:38;;;;;;;1.83;0.40;;;;;;;7.81;51.36;96675.53;4962270;28;20035;-65
2023/10/08 10:02:05;;;;;;;3.17;0.30;;;;;;;8.08;50.63;96672.34;4973768;28;20057;-65
2023/10/08 10:04:32;;;;;;;3.15;0.35;;;;;;;8.31;50.22;96672.25;4974223;28;20037;-64
2023/10/08 10:06:58;;;;;;;0.98;0.60;;;;;;;8.53;50.27;96669.66;4980250;28;20034;-65
2023/10/08 10:09:26;;;;;;;1.25;0.38;;;;;;;8.84;49.89;96677.34;4968946;28;20472;-65
2023/10/08 10:11:53;;;;;;;3.30;0.30;;;;;;;9.08;48.56;96677.97;4981911;28;20086;-65
2023/10/08 10:14:22;;;;;;;1.13;0.43;;;;;;;9.04;49.15;96666.00;4974531;28;20524;-65
2023/10/08 10:17:10;;;;;;;0.95;0.30;;;;;;;9.10;49.32;96673.28;4956940;28;20058;-65
2023/10/08 10:19:37;;;;;;;0.93;0.20;;;;;;;8.88;49.15;96683.13;4974505;28;20066;-66
2023/10/08 10:22:03;;;;;;;0.73;0.30;;;;;;;8.67;50.33;96676.75;4974039;28;20134;-66
2023/10/08 10:24:41;;;;;;;2.30;0.35;;;;;;;8.55;50.89;96672.94;4976546;28;20494;-64
2023/10/08 10:27:15;;;;;;;1.58;0.47;;;;;;;8.25;52.05;96684.47;4992489;28;20518;-67
2023/10/08 10:29:43;;;;;;;2.33;0.57;;;;;;;8.06;52.73;96691.22;4993881;28;20041;-64
2023/10/08 10:32:14;;;;;;;0.70;0.50;;;;;;;7.92;53.50;96700.88;4993334;28;20046;-64
2023/10/08 10:34:44;;;;;;;3.75;0.70;;;;;;;7.80;53.66;96702.31;4992708;28;20113;-64
2023/10/08 10:37:19;;;;;;;1.10;0.50;;;;;;;7.57;54.23;96693.41;4993402;28;20141;-67
2023/10/08 10:39:55;;;;;;;0.77;0.30;;;;;;;7.50;54.68;96692.50;4988494;28;20130;-66
2023/10/08 10:42:22;;;;;;;;;;;;;;;7.70;53.69;96695.44;4974656;28;20047;-65
2023/10/08 10:44:53;;;;;;;1.67;0.57;;;;;;;7.24;55.87;96711.53;4975175;28;20329;-64
2023/10/08 10:52:51;;;;;;;0.93;0.50;;;;;;;6.88;57.03;96711.16;4973746;28;20066;-66
2023/10/08 10:55:20;;;;;;;0.75;0.22;;;;;;;6.88;57.86;96731.59;4973065;28;20442;-64
2023/10/08 10:57:55;;;;;;;1.65;0.28;;;;;;;6.64;57.07;96682.88;4974117;28;20035;-65
2023/10/08 11:03:03;;;;;;;0.63;0.20;;;;;;;6.64;59.29;96741.38;4973920;28;20053;-64
2023/10/08 11:05:29;;;;;;;1.50;0.57;;;;;;;6.58;59.69;96736.78;4974252;28;20030;-66
2023/10/08 11:08:04;;;;;;;0.45;0.30;;;;;;;6.50;59.67;96727.00;4974562;28;20366;-64
2023/10/08 11:10:46;;;;;;;0.80;0.60;;;;;;;6.37;60.35;96735.53;4973752;28;20126;-66
2023/10/08 11:13:14;;;;;;;1.75;0.70;;;;;;;6.28;61.73;96742.72;4973742;28;20366;-64
2023/10/08 11:15:42;;;;;;;1.75;0.60;;;;;;;6.29;60.98;96740.91;4973981;28;20055;-64
2023/10/08 11:18:09;;;;;;;1.95;0.50;;;;;;;6.25;61.59;96735.09;4972402;28;20054;-65
2023/10/08 11:20:44;;;;;;;2.28;0.50;;;;;;;6.29;61.79;96724.97;4973646;28;20039;-65
2023/10/08 11:23:19;;;;;;;1.00;0.50;;;;;;;6.35;61.27;96748.19;4974915;28;20038;-65
2023/10/08 11:25:55;;;;;;;;;;;;;;;6.69;59.36;96736.34;4974243;28;20121;-64
2023/10/08 11:28:20;;;;;;;2.42;1.35;;;;;;;6.36;60.27;96720.59;4972386;28;19921;-65
2023/10/08 11:30:51;;;;;;;3.60;1.00;;;;;;;6.07;60.95;96687.53;4990631;28;20046;-65
2023/10/08 11:33:17;;;;;;;2.10;0.60;;;;;;;6.37;61.21;96740.84;4993274;28;20369;-64
2023/10/08 11:36:02;;;;;;;3.17;0.65;;;;;;;6.34;60.93;96698.69;4992163;28;20047;-64
2023/10/08 11:38:37;;;;;;;0.90;0.50;;;;;;;6.56;60.57;96731.63;4989904;28;20593;-67
2023/10/08 11:41:22;;;;;;;5.70;0.93;;;;;;;6.56;60.99;96733.47;4975602;28;20358;-72
2023/10/08 11:43:53;;;;;;;3.93;0.73;;;;;;;6.53;60.76;96737.28;4992213;28;20026;-64
2023/10/08 11:46:20;;;;;;;0.52;0.40;;;;;;;6.23;60.78;96693.75;4992738;28;20500;-63
2023/10/08 11:48:46;;;;;;;0.90;0.50;;;;;;;6.41;60.93;96726.22;4991698;28;20112;-65
2023/10/08 11:51:16;;;;;;;2.90;0.57;;;;;;;6.33;61.33;96731.59;4990929;28;20627;-65
2023/10/08 11:53:44;;;;;;;3.78;1.00;;;;;;;6.11;61.12;96706.59;4974949;28;20154;-64
2023/10/08 11:56:13;;;;;;;2.55;0.85;;;;;;;6.31;61.34;96722.97;4973381;28;20078;-64
2023/10/08 11:58:44;;;;;;;2.38;0.50;;;;;;;6.28;61.70;96742.72;4973148;28;20114;-65
2023/10/08 12:01:15;;;;;;;1.60;0.60;;;;;;;6.26;62.54;96730.59;4973036;28;20046;-64
2023/10/08 12:03:49;;;;;;;1.95;0.60;;;;;;;6.36;62.21;96733.03;4973568;28;20092;-65
2023/10/08 12:06:18;;;;;;;2.17;0.80;;;;;;;6.31;61.77;96726.44;4972198;28;20126;-65
2023/10/08 12:08:53;;;;;;;2.22;0.70;;;;;;;6.40;61.71;96729.06;4973671;28;20477;-65
2023/10/08 12:11:22;;;;;;;1.20;0.60;;;;;;;6.35;61.45;96726.91;4973098;28;20407;-65
2023/10/08 12:13:49;;;;;;;1.80;0.50;;;;;;;6.25;61.12;96732.44;4956865;28;20039;-64
2023/10/08 12:16:21;;;;;;;1.58;0.50;;;;;;;6.23;62.85;96734.44;4990200;28;20137;-65
2023/10/08 12:18:53;;;;;;;1.27;0.90;;;;;;;6.35;62.17;96732.22;4993055;28;20030;-64
2023/10/08 12:21:22;;;;;;;1.63;0.90;;;;;;;6.11;62.90;96699.47;4994887;28;20049;-64
2023/10/08 12:23:49;;;;;;;0.98;0.50;;;;;;;6.33;62.48;96728.94;4974631;28;20027;-64
2023/10/08 12:26:18;;;;;;;0.82;0.60;;;;;;;6.39;62.52;96741.50;4977445;28;20050;-64
2023/10/08 12:31:30;;;;;;;2.22;0.90;;;;;;;6.28;62.69;96721.47;4993248;28;20061;-65
2023/10/08 12:34:00;;;;;;;1.15;0.50;;;;;;;6.22;62.72;96729.28;4994322;28;20865;-66
2023/10/08 12:36:32;;;;;;;1.65;0.55;;;;;;;6.18;62.58;96748.22;4994358;28;20113;-64
2023/10/08 12:38:59;;;;;;;2.05;0.50;;;;;;;6.08;62.72;96747.63;4995573;28;20362;-66
2023/10/08 12:41:29;;;;;;;0.73;0.55;;;;;;;5.80;63.34;96704.69;4994520;28;20115;-63
2023/10/08 12:43:54;;;;;;;4.68;2.80;;;;;;;6.03;63.83;96739.34;4995307;28;20034;-66
2023/10/08 12:46:24;;;;;;;2.28;0.80;;;;;;;6.09;64.36;96733.34;4995434;28;20453;-64
2023/10/08 12:48:54;;;;;;;1.63;0.55;;;;;;;6.16;63.50;96739.63;4994741;28;20030;-65
2023/10/08 12:51:25;;;;;;;5.00;0.60;;;;;;;6.17;63.26;96740.47;4963528;28;20047;-65
2023/10/08 12:54:10;;;;;;;1.73;0.40;;;;;;;6.04;63.78;96730.38;4987710;28;20113;-65
2023/10/08 12:56:48;;;;;;;1.85;0.63;;;;;;;5.97;63.95;96739.97;4994570;28;20030;-64
2023/10/08 12:59:21;;;;;;;1.30;0.50;;;;;;;5.90;64.21;96734.50;4993673;28;20038;-64
2023/10/08 13:01:51;;;;;;;1.27;0.60;;;;;;;5.82;64.92;96739.84;4995687;28;20054;-65
2023/10/08 13:04:26;;;;;;;2.38;0.60;;;;;;;5.49;64.42;96695.63;4995219;28;20070;-65
2023/10/08 13:06:57;;;;;;;2.50;0.50;;;;;;;5.69;64.38;96746.53;4995382;28;20062;-64